Yeager Airport
KCRW : now visible

Airfield :











YOU CAN JOIN US ON...

 
LOGIN :

Register | Disclaimer

   EN    FR    IT 

 









Legend :    VFR   Marginal VFR   IFR   Intensive IFR   Very Intensive IFR
Visi :
Ceiling :
>= 8 km
>= 3000ft
5 to 8 km
1000 to 3000 ft
1500m to 5 km
500 to 1000 ft
800 to 1500m
200 to 500 ft
< 800m
< 200 ft
Symbols :   Thunderstorms  Fog  Heavy snow  Heavy precipitations  Wind > 20 kt






- Airport Elevation : 981 ft
- IATA code : CRW


KCRW - Yeager

CURRENT METAR :
  • 250654Z 23006KT 6SM -RA BR BKN027 OVC065 06/03 A2990 RMK AO2 RAB53 SLP126 P0000 T00560033

EXPIRED METARs :
  • 250603Z 29008G15KT 4SM BR BKN001 BKN010 OVC020 06/05 A2989 RMK AO2 FG BKN001 T00560050
  • 250454Z 11003KT 1/4SM FG VV001 06/05 A2988 RMK AO2 SLP119 T00610050 401220056 RVRNO

TAF KCRW
Valid from the 25 at 06:00 until the 26 at 06:00 UTC


250527Z 2506/2606 00000KT 1/4SM FG VV001
FM250700 00000KT 3/4SM BR OVC005
FM250900 00000KT 1SM BR OVC015
FM251200 00000KT 2SM BR OVC015
FM251500 26006KT P6SM OVC020
FM260300 24005KT 4SM BR OVC014



MET'MAP, your aeronautical weather chart ! - Copyright ORBIFLY December 2007 - Disclaimer

ORBIFLY MET'MAP TEAM :

Programming & Development : Alexandra Zaïnal
Concept & original design : Baudouin d'Aumeries
Assistance for programming : Marc-Olivier Méhu
Technical & hardware support : Manuel Goepfert

Contact : metmap@orbifly.com




SOURCES & CREDITS :

   NOAA       Earth
Advisory